sensor_id;sensor_type;location;lat;lon;timestamp;P1;durP1;ratioP1;P2;durP2;ratioP2
57325;SDS011;43161;50.950;18.224;2023-08-12T00:01:01;41.20;;;20.30;;
57325;SDS011;43161;50.950;18.224;2023-08-12T00:03:27;64.20;;;28.70;;
57325;SDS011;43161;50.950;18.224;2023-08-12T00:05:53;30.00;;;15.00;;
57325;SDS011;43161;50.950;18.224;2023-08-12T00:08:19;16.90;;;8.50;;
57325;SDS011;43161;50.950;18.224;2023-08-12T00:10:45;12.50;;;6.30;;
57325;SDS011;43161;50.950;18.224;2023-08-12T00:13:10;12.70;;;6.20;;
57325;SDS011;43161;50.950;18.224;2023-08-12T00:15:38;13.20;;;6.20;;
57325;SDS011;43161;50.950;18.224;2023-08-12T00:18:06;12.10;;;6.10;;
57325;SDS011;43161;50.950;18.224;2023-08-12T00:20:32;15.00;;;5.60;;
57325;SDS011;43161;50.950;18.224;2023-08-12T00:22:58;13.50;;;6.10;;
57325;SDS011;43161;50.950;18.224;2023-08-12T00:25:25;11.60;;;6.10;;
57325;SDS011;43161;50.950;18.224;2023-08-12T00:27:51;12.30;;;6.30;;
57325;SDS011;43161;50.950;18.224;2023-08-12T00:30:17;14.60;;;6.20;;
57325;SDS011;43161;50.950;18.224;2023-08-12T00:32:43;14.90;;;6.00;;
57325;SDS011;43161;50.950;18.224;2023-08-12T00:35:08;12.90;;;6.20;;
57325;SDS011;43161;50.950;18.224;2023-08-12T00:37:34;13.30;;;5.90;;
57325;SDS011;43161;50.950;18.224;2023-08-12T00:40:00;13.50;;;6.60;;
57325;SDS011;43161;50.950;18.224;2023-08-12T00:42:26;13.90;;;6.60;;
57325;SDS011;43161;50.950;18.224;2023-08-12T00:44:52;12.80;;;6.60;;
57325;SDS011;43161;50.950;18.224;2023-08-12T00:47:17;12.50;;;6.80;;
57325;SDS011;43161;50.950;18.224;2023-08-12T00:49:44;13.90;;;6.50;;
57325;SDS011;43161;50.950;18.224;2023-08-12T00:52:11;16.00;;;6.20;;
57325;SDS011;43161;50.950;18.224;2023-08-12T00:54:38;16.00;;;6.30;;
57325;SDS011;43161;50.950;18.224;2023-08-12T00:57:04;12.30;;;6.50;;
57325;SDS011;43161;50.950;18.224;2023-08-12T00:59:31;15.70;;;6.90;;
57325;SDS011;43161;50.950;18.224;2023-08-12T01:01:57;13.40;;;6.60;;
57325;SDS011;43161;50.950;18.224;2023-08-12T01:04:23;12.20;;;6.40;;
57325;SDS011;43161;50.950;18.224;2023-08-12T01:06:49;12.60;;;6.20;;
57325;SDS011;43161;50.950;18.224;2023-08-12T01:09:15;14.80;;;6.50;;
57325;SDS011;43161;50.950;18.224;2023-08-12T01:11:42;12.70;;;6.90;;
57325;SDS011;43161;50.950;18.224;2023-08-12T01:14:22;15.70;;;7.00;;
57325;SDS011;43161;50.950;18.224;2023-08-12T01:16:53;14.00;;;6.20;;
57325;SDS011;43161;50.950;18.224;2023-08-12T01:21:55;13.30;;;6.70;;
57325;SDS011;43161;50.950;18.224;2023-08-12T01:24:25;12.20;;;6.60;;
57325;SDS011;43161;50.950;18.224;2023-08-12T01:26:51;13.80;;;7.10;;
57325;SDS011;43161;50.950;18.224;2023-08-12T01:29:17;13.80;;;6.50;;
57325;SDS011;43161;50.950;18.224;2023-08-12T01:31:45;14.30;;;6.90;;
57325;SDS011;43161;50.950;18.224;2023-08-12T01:34:20;12.00;;;6.40;;
57325;SDS011;43161;50.950;18.224;2023-08-12T01:36:51;13.00;;;6.90;;
57325;SDS011;43161;50.950;18.224;2023-08-12T01:39:21;13.90;;;6.60;;
57325;SDS011;43161;50.950;18.224;2023-08-12T01:41:48;11.20;;;6.10;;
57325;SDS011;43161;50.950;18.224;2023-08-12T01:44:13;13.40;;;6.50;;
57325;SDS011;43161;50.950;18.224;2023-08-12T01:46:39;13.50;;;6.90;;
57325;SDS011;43161;50.950;18.224;2023-08-12T01:49:05;13.40;;;6.90;;
57325;SDS011;43161;50.950;18.224;2023-08-12T01:51:31;12.60;;;6.30;;
57325;SDS011;43161;50.950;18.224;2023-08-12T01:53:57;15.40;;;6.90;;
57325;SDS011;43161;50.950;18.224;2023-08-12T01:56:22;13.30;;;7.20;;
57325;SDS011;43161;50.950;18.224;2023-08-12T01:58:48;13.40;;;7.10;;
57325;SDS011;43161;50.950;18.224;2023-08-12T02:01:14;12.90;;;7.00;;
57325;SDS011;43161;50.950;18.224;2023-08-12T02:03:39;13.20;;;6.70;;
57325;SDS011;43161;50.950;18.224;2023-08-12T02:06:05;12.40;;;6.80;;
57325;SDS011;43161;50.950;18.224;2023-08-12T02:08:30;18.10;;;6.80;;
57325;SDS011;43161;50.950;18.224;2023-08-12T02:10:56;15.70;;;7.00;;
57325;SDS011;43161;50.950;18.224;2023-08-12T02:13:22;19.60;;;7.30;;
57325;SDS011;43161;50.950;18.224;2023-08-12T02:15:48;13.90;;;6.90;;
57325;SDS011;43161;50.950;18.224;2023-08-12T02:18:14;14.10;;;6.70;;
57325;SDS011;43161;50.950;18.224;2023-08-12T02:20:40;13.40;;;6.70;;
57325;SDS011;43161;50.950;18.224;2023-08-12T02:23:06;12.30;;;6.60;;
57325;SDS011;43161;50.950;18.224;2023-08-12T02:25:32;13.30;;;7.30;;
57325;SDS011;43161;50.950;18.224;2023-08-12T02:27:58;13.30;;;7.30;;
57325;SDS011;43161;50.950;18.224;2023-08-12T02:30:23;16.00;;;7.20;;
57325;SDS011;43161;50.950;18.224;2023-08-12T02:32:49;15.50;;;7.40;;
57325;SDS011;43161;50.950;18.224;2023-08-12T02:35:17;13.10;;;6.60;;
57325;SDS011;43161;50.950;18.224;2023-08-12T02:37:43;14.50;;;7.10;;
57325;SDS011;43161;50.950;18.224;2023-08-12T02:40:09;14.80;;;7.10;;
57325;SDS011;43161;50.950;18.224;2023-08-12T02:42:36;14.00;;;7.30;;
57325;SDS011;43161;50.950;18.224;2023-08-12T02:45:02;13.70;;;6.80;;
57325;SDS011;43161;50.950;18.224;2023-08-12T02:47:28;15.50;;;6.80;;
57325;SDS011;43161;50.950;18.224;2023-08-12T02:49:53;13.80;;;6.30;;
57325;SDS011;43161;50.950;18.224;2023-08-12T02:52:19;18.10;;;7.00;;
57325;SDS011;43161;50.950;18.224;2023-08-12T02:54:45;13.60;;;7.10;;
57325;SDS011;43161;50.950;18.224;2023-08-12T02:57:10;14.10;;;6.50;;
57325;SDS011;43161;50.950;18.224;2023-08-12T02:59:36;13.00;;;6.40;;
57325;SDS011;43161;50.950;18.224;2023-08-12T03:02:02;14.30;;;6.40;;
57325;SDS011;43161;50.950;18.224;2023-08-12T03:04:28;13.30;;;6.20;;
57325;SDS011;43161;50.950;18.224;2023-08-12T03:06:54;13.50;;;6.60;;
57325;SDS011;43161;50.950;18.224;2023-08-12T03:09:20;14.30;;;7.00;;
57325;SDS011;43161;50.950;18.224;2023-08-12T03:11:46;14.90;;;7.20;;
57325;SDS011;43161;50.950;18.224;2023-08-12T03:14:12;16.30;;;7.00;;
57325;SDS011;43161;50.950;18.224;2023-08-12T03:16:37;17.20;;;7.30;;
57325;SDS011;43161;50.950;18.224;2023-08-12T03:19:03;14.60;;;7.20;;
57325;SDS011;43161;50.950;18.224;2023-08-12T03:21:29;13.80;;;6.70;;
57325;SDS011;43161;50.950;18.224;2023-08-12T03:23:55;16.30;;;7.00;;
57325;SDS011;43161;50.950;18.224;2023-08-12T03:26:20;13.70;;;7.10;;
57325;SDS011;43161;50.950;18.224;2023-08-12T03:28:46;15.30;;;6.90;;
57325;SDS011;43161;50.950;18.224;2023-08-12T03:31:11;14.20;;;7.10;;
57325;SDS011;43161;50.950;18.224;2023-08-12T03:33:37;13.60;;;7.10;;
57325;SDS011;43161;50.950;18.224;2023-08-12T03:36:03;15.90;;;7.30;;
57325;SDS011;43161;50.950;18.224;2023-08-12T03:38:29;13.90;;;7.40;;
57325;SDS011;43161;50.950;18.224;2023-08-12T03:40:54;15.80;;;7.60;;
57325;SDS011;43161;50.950;18.224;2023-08-12T03:43:20;13.50;;;7.30;;
57325;SDS011;43161;50.950;18.224;2023-08-12T03:45:45;13.90;;;7.70;;
57325;SDS011;43161;50.950;18.224;2023-08-12T03:48:12;13.90;;;7.90;;
57325;SDS011;43161;50.950;18.224;2023-08-12T03:50:38;17.00;;;8.00;;
57325;SDS011;43161;50.950;18.224;2023-08-12T03:53:05;14.50;;;7.40;;
57325;SDS011;43161;50.950;18.224;2023-08-12T03:55:31;14.20;;;7.70;;
57325;SDS011;43161;50.950;18.224;2023-08-12T03:58:00;12.60;;;6.90;;
57325;SDS011;43161;50.950;18.224;2023-08-12T04:00:26;19.70;;;8.30;;
57325;SDS011;43161;50.950;18.224;2023-08-12T04:02:53;14.60;;;8.00;;
57325;SDS011;43161;50.950;18.224;2023-08-12T04:05:19;16.10;;;8.00;;
57325;SDS011;43161;50.950;18.224;2023-08-12T04:07:44;14.90;;;7.50;;
57325;SDS011;43161;50.950;18.224;2023-08-12T04:10:10;13.30;;;7.60;;
57325;SDS011;43161;50.950;18.224;2023-08-12T04:12:36;16.40;;;7.50;;
57325;SDS011;43161;50.950;18.224;2023-08-12T04:15:02;15.30;;;8.20;;
57325;SDS011;43161;50.950;18.224;2023-08-12T04:17:30;16.50;;;7.70;;
57325;SDS011;43161;50.950;18.224;2023-08-12T04:19:56;17.40;;;7.40;;
57325;SDS011;43161;50.950;18.224;2023-08-12T04:22:21;16.70;;;7.40;;
57325;SDS011;43161;50.950;18.224;2023-08-12T04:24:47;15.60;;;8.00;;
57325;SDS011;43161;50.950;18.224;2023-08-12T04:27:13;16.10;;;8.30;;
57325;SDS011;43161;50.950;18.224;2023-08-12T04:29:38;21.10;;;7.90;;
57325;SDS011;43161;50.950;18.224;2023-08-12T04:32:04;14.10;;;8.00;;
57325;SDS011;43161;50.950;18.224;2023-08-12T04:34:30;16.90;;;7.80;;
57325;SDS011;43161;50.950;18.224;2023-08-12T04:36:55;15.30;;;7.40;;
57325;SDS011;43161;50.950;18.224;2023-08-12T04:39:21;16.20;;;8.30;;
57325;SDS011;43161;50.950;18.224;2023-08-12T04:41:47;17.20;;;8.50;;
57325;SDS011;43161;50.950;18.224;2023-08-12T04:44:13;14.30;;;7.90;;
57325;SDS011;43161;50.950;18.224;2023-08-12T04:46:38;15.30;;;8.40;;
57325;SDS011;43161;50.950;18.224;2023-08-12T04:49:05;21.50;;;9.70;;
57325;SDS011;43161;50.950;18.224;2023-08-12T04:51:30;25.90;;;11.10;;
57325;SDS011;43161;50.950;18.224;2023-08-12T04:53:56;78.90;;;38.20;;
57325;SDS011;43161;50.950;18.224;2023-08-12T04:56:23;55.90;;;31.00;;
57325;SDS011;43161;50.950;18.224;2023-08-12T04:58:49;24.30;;;14.60;;
57325;SDS011;43161;50.950;18.224;2023-08-12T05:01:15;52.40;;;31.00;;
57325;SDS011;43161;50.950;18.224;2023-08-12T05:03:41;56.70;;;31.60;;
57325;SDS011;43161;50.950;18.224;2023-08-12T05:06:06;47.10;;;25.30;;
57325;SDS011;43161;50.950;18.224;2023-08-12T05:08:32;63.90;;;34.60;;
57325;SDS011;43161;50.950;18.224;2023-08-12T05:10:58;58.20;;;28.10;;
57325;SDS011;43161;50.950;18.224;2023-08-12T05:13:24;38.50;;;17.90;;
57325;SDS011;43161;50.950;18.224;2023-08-12T05:15:49;35.90;;;14.90;;
57325;SDS011;43161;50.950;18.224;2023-08-12T05:18:15;22.40;;;11.20;;
57325;SDS011;43161;50.950;18.224;2023-08-12T05:20:41;19.90;;;9.60;;
57325;SDS011;43161;50.950;18.224;2023-08-12T05:23:07;16.20;;;7.80;;
57325;SDS011;43161;50.950;18.224;2023-08-12T05:25:34;20.20;;;8.40;;
57325;SDS011;43161;50.950;18.224;2023-08-12T05:28:00;16.70;;;7.60;;
57325;SDS011;43161;50.950;18.224;2023-08-12T05:30:26;14.80;;;6.20;;
57325;SDS011;43161;50.950;18.224;2023-08-12T05:32:51;12.30;;;5.60;;
57325;SDS011;43161;50.950;18.224;2023-08-12T05:35:17;15.50;;;5.80;;
57325;SDS011;43161;50.950;18.224;2023-08-12T05:37:42;13.50;;;6.10;;
57325;SDS011;43161;50.950;18.224;2023-08-12T05:40:09;11.50;;;5.30;;
57325;SDS011;43161;50.950;18.224;2023-08-12T05:42:35;12.70;;;5.70;;
57325;SDS011;43161;50.950;18.224;2023-08-12T05:45:01;13.00;;;5.30;;
57325;SDS011;43161;50.950;18.224;2023-08-12T05:47:27;13.80;;;5.50;;
57325;SDS011;43161;50.950;18.224;2023-08-12T05:49:53;12.00;;;5.50;;
57325;SDS011;43161;50.950;18.224;2023-08-12T05:52:18;15.40;;;6.00;;
57325;SDS011;43161;50.950;18.224;2023-08-12T05:54:44;13.30;;;6.10;;
57325;SDS011;43161;50.950;18.224;2023-08-12T05:57:10;14.10;;;6.10;;
57325;SDS011;43161;50.950;18.224;2023-08-12T05:59:35;12.40;;;5.80;;
57325;SDS011;43161;50.950;18.224;2023-08-12T06:02:01;13.20;;;5.80;;
57325;SDS011;43161;50.950;18.224;2023-08-12T06:04:27;14.10;;;5.70;;
57325;SDS011;43161;50.950;18.224;2023-08-12T06:06:53;20.00;;;5.90;;
57325;SDS011;43161;50.950;18.224;2023-08-12T06:09:18;12.90;;;5.70;;
57325;SDS011;43161;50.950;18.224;2023-08-12T06:11:44;15.10;;;6.30;;
57325;SDS011;43161;50.950;18.224;2023-08-12T06:14:09;13.90;;;5.90;;
57325;SDS011;43161;50.950;18.224;2023-08-12T06:16:35;15.30;;;5.10;;
57325;SDS011;43161;50.950;18.224;2023-08-12T06:19:01;11.20;;;4.30;;
57325;SDS011;43161;50.950;18.224;2023-08-12T06:21:27;12.20;;;4.80;;
57325;SDS011;43161;50.950;18.224;2023-08-12T06:23:52;9.60;;;4.70;;
57325;SDS011;43161;50.950;18.224;2023-08-12T06:26:18;10.60;;;4.90;;
57325;SDS011;43161;50.950;18.224;2023-08-12T06:28:44;17.60;;;5.20;;
57325;SDS011;43161;50.950;18.224;2023-08-12T06:31:09;10.60;;;4.00;;
57325;SDS011;43161;50.950;18.224;2023-08-12T06:33:35;10.60;;;4.50;;
57325;SDS011;43161;50.950;18.224;2023-08-12T06:36:01;11.60;;;4.80;;
57325;SDS011;43161;50.950;18.224;2023-08-12T06:38:27;10.20;;;4.40;;
57325;SDS011;43161;50.950;18.224;2023-08-12T06:40:52;12.50;;;4.70;;
57325;SDS011;43161;50.950;18.224;2023-08-12T06:43:19;10.70;;;4.80;;
57325;SDS011;43161;50.950;18.224;2023-08-12T06:45:44;11.60;;;4.40;;
57325;SDS011;43161;50.950;18.224;2023-08-12T06:48:10;10.10;;;4.10;;
57325;SDS011;43161;50.950;18.224;2023-08-12T06:50:35;11.30;;;4.10;;
57325;SDS011;43161;50.950;18.224;2023-08-12T06:53:01;10.20;;;4.30;;
57325;SDS011;43161;50.950;18.224;2023-08-12T06:55:27;12.80;;;5.50;;
57325;SDS011;43161;50.950;18.224;2023-08-12T06:57:53;11.30;;;5.10;;
57325;SDS011;43161;50.950;18.224;2023-08-12T07:00:18;11.20;;;4.30;;
57325;SDS011;43161;50.950;18.224;2023-08-12T07:02:44;10.80;;;4.30;;
57325;SDS011;43161;50.950;18.224;2023-08-12T07:05:10;10.30;;;4.00;;
57325;SDS011;43161;50.950;18.224;2023-08-12T07:07:35;10.90;;;4.20;;
57325;SDS011;43161;50.950;18.224;2023-08-12T07:10:01;12.40;;;4.00;;
57325;SDS011;43161;50.950;18.224;2023-08-12T07:12:26;9.90;;;3.90;;
57325;SDS011;43161;50.950;18.224;2023-08-12T07:14:52;10.40;;;3.80;;
57325;SDS011;43161;50.950;18.224;2023-08-12T07:17:18;9.60;;;4.10;;
57325;SDS011;43161;50.950;18.224;2023-08-12T07:19:43;11.70;;;3.80;;
57325;SDS011;43161;50.950;18.224;2023-08-12T07:22:09;11.40;;;3.90;;
57325;SDS011;43161;50.950;18.224;2023-08-12T07:24:34;9.60;;;3.80;;
57325;SDS011;43161;50.950;18.224;2023-08-12T07:27:00;12.60;;;4.30;;
57325;SDS011;43161;50.950;18.224;2023-08-12T07:29:26;9.70;;;3.70;;
57325;SDS011;43161;50.950;18.224;2023-08-12T07:31:52;8.50;;;3.60;;
57325;SDS011;43161;50.950;18.224;2023-08-12T07:34:18;10.30;;;3.70;;
57325;SDS011;43161;50.950;18.224;2023-08-12T07:36:43;9.50;;;3.90;;
57325;SDS011;43161;50.950;18.224;2023-08-12T07:39:09;9.50;;;3.30;;
57325;SDS011;43161;50.950;18.224;2023-08-12T07:41:35;8.30;;;3.30;;
57325;SDS011;43161;50.950;18.224;2023-08-12T07:44:01;10.40;;;3.20;;
57325;SDS011;43161;50.950;18.224;2023-08-12T07:46:27;8.60;;;2.70;;
57325;SDS011;43161;50.950;18.224;2023-08-12T07:48:53;7.60;;;2.50;;
57325;SDS011;43161;50.950;18.224;2023-08-12T07:51:19;10.80;;;3.00;;
57325;SDS011;43161;50.950;18.224;2023-08-12T07:53:45;8.30;;;2.80;;
57325;SDS011;43161;50.950;18.224;2023-08-12T07:56:10;9.20;;;3.00;;
57325;SDS011;43161;50.950;18.224;2023-08-12T07:58:36;10.80;;;2.70;;
57325;SDS011;43161;50.950;18.224;2023-08-12T08:01:02;8.60;;;2.60;;
57325;SDS011;43161;50.950;18.224;2023-08-12T08:03:27;9.10;;;2.70;;
57325;SDS011;43161;50.950;18.224;2023-08-12T08:05:54;10.20;;;2.80;;
57325;SDS011;43161;50.950;18.224;2023-08-12T08:08:20;9.50;;;2.90;;
57325;SDS011;43161;50.950;18.224;2023-08-12T08:10:47;9.90;;;3.10;;
57325;SDS011;43161;50.950;18.224;2023-08-12T08:13:12;6.80;;;2.30;;
57325;SDS011;43161;50.950;18.224;2023-08-12T08:15:38;8.30;;;2.50;;
57325;SDS011;43161;50.950;18.224;2023-08-12T08:18:04;7.70;;;2.60;;
57325;SDS011;43161;50.950;18.224;2023-08-12T08:20:30;8.20;;;2.50;;
57325;SDS011;43161;50.950;18.224;2023-08-12T08:22:56;8.90;;;2.60;;
57325;SDS011;43161;50.950;18.224;2023-08-12T08:25:22;10.30;;;3.50;;
57325;SDS011;43161;50.950;18.224;2023-08-12T08:27:48;8.30;;;2.90;;
57325;SDS011;43161;50.950;18.224;2023-08-12T08:30:14;8.10;;;2.50;;
57325;SDS011;43161;50.950;18.224;2023-08-12T08:32:40;8.60;;;2.40;;
57325;SDS011;43161;50.950;18.224;2023-08-12T08:35:06;8.10;;;2.40;;
57325;SDS011;43161;50.950;18.224;2023-08-12T08:37:32;9.40;;;2.50;;
57325;SDS011;43161;50.950;18.224;2023-08-12T08:39:58;7.10;;;2.60;;
57325;SDS011;43161;50.950;18.224;2023-08-12T08:42:24;7.80;;;2.20;;
57325;SDS011;43161;50.950;18.224;2023-08-12T08:44:53;6.70;;;2.60;;
57325;SDS011;43161;50.950;18.224;2023-08-12T08:47:19;7.50;;;2.30;;
57325;SDS011;43161;50.950;18.224;2023-08-12T08:49:51;7.10;;;2.20;;
57325;SDS011;43161;50.950;18.224;2023-08-12T08:52:17;10.90;;;2.70;;
57325;SDS011;43161;50.950;18.224;2023-08-12T08:54:43;11.30;;;2.80;;
57325;SDS011;43161;50.950;18.224;2023-08-12T08:57:09;9.00;;;2.50;;
57325;SDS011;43161;50.950;18.224;2023-08-12T08:59:35;8.90;;;2.50;;
57325;SDS011;43161;50.950;18.224;2023-08-12T09:02:01;11.40;;;2.80;;
57325;SDS011;43161;50.950;18.224;2023-08-12T09:04:27;9.80;;;2.40;;
57325;SDS011;43161;50.950;18.224;2023-08-12T09:06:53;8.30;;;1.90;;
57325;SDS011;43161;50.950;18.224;2023-08-12T09:09:19;8.10;;;2.20;;
57325;SDS011;43161;50.950;18.224;2023-08-12T09:11:45;9.50;;;3.00;;
57325;SDS011;43161;50.950;18.224;2023-08-12T09:14:13;7.30;;;2.70;;
57325;SDS011;43161;50.950;18.224;2023-08-12T09:16:39;7.40;;;2.60;;
57325;SDS011;43161;50.950;18.224;2023-08-12T09:19:05;9.70;;;2.10;;
57325;SDS011;43161;50.950;18.224;2023-08-12T09:21:31;7.80;;;2.30;;
57325;SDS011;43161;50.950;18.224;2023-08-12T09:23:57;6.90;;;2.00;;
57325;SDS011;43161;50.950;18.224;2023-08-12T09:26:28;9.30;;;2.50;;
57325;SDS011;43161;50.950;18.224;2023-08-12T09:28:54;8.60;;;2.40;;
57325;SDS011;43161;50.950;18.224;2023-08-12T09:31:27;6.70;;;2.00;;
57325;SDS011;43161;50.950;18.224;2023-08-12T09:33:57;7.00;;;1.70;;
57325;SDS011;43161;50.950;18.224;2023-08-12T09:36:25;8.70;;;2.30;;
57325;SDS011;43161;50.950;18.224;2023-08-12T09:38:53;6.80;;;2.20;;
57325;SDS011;43161;50.950;18.224;2023-08-12T09:41:18;6.90;;;2.50;;
57325;SDS011;43161;50.950;18.224;2023-08-12T09:43:44;5.20;;;2.00;;
57325;SDS011;43161;50.950;18.224;2023-08-12T09:46:10;7.70;;;2.20;;
57325;SDS011;43161;50.950;18.224;2023-08-12T09:48:38;6.70;;;1.90;;
57325;SDS011;43161;50.950;18.224;2023-08-12T09:51:04;5.40;;;1.90;;
57325;SDS011;43161;50.950;18.224;2023-08-12T09:53:31;8.70;;;2.00;;
57325;SDS011;43161;50.950;18.224;2023-08-12T09:55:59;8.00;;;2.30;;
57325;SDS011;43161;50.950;18.224;2023-08-12T09:58:35;8.10;;;2.20;;
57325;SDS011;43161;50.950;18.224;2023-08-12T10:01:05;7.70;;;2.20;;
57325;SDS011;43161;50.950;18.224;2023-08-12T10:03:33;5.70;;;1.90;;
57325;SDS011;43161;50.950;18.224;2023-08-12T10:05:59;5.50;;;1.90;;
57325;SDS011;43161;50.950;18.224;2023-08-12T10:08:26;7.90;;;1.70;;
57325;SDS011;43161;50.950;18.224;2023-08-12T10:10:53;7.10;;;2.30;;
57325;SDS011;43161;50.950;18.224;2023-08-12T10:13:19;7.60;;;2.10;;
57325;SDS011;43161;50.950;18.224;2023-08-12T10:15:46;6.60;;;2.20;;
57325;SDS011;43161;50.950;18.224;2023-08-12T10:18:12;7.70;;;2.00;;
57325;SDS011;43161;50.950;18.224;2023-08-12T10:20:39;5.20;;;1.90;;
57325;SDS011;43161;50.950;18.224;2023-08-12T10:23:05;7.00;;;1.70;;
57325;SDS011;43161;50.950;18.224;2023-08-12T10:25:32;8.00;;;2.20;;
57325;SDS011;43161;50.950;18.224;2023-08-12T10:28:01;8.00;;;1.60;;
57325;SDS011;43161;50.950;18.224;2023-08-12T10:30:30;6.00;;;1.70;;
57325;SDS011;43161;50.950;18.224;2023-08-12T10:32:57;6.30;;;1.70;;
57325;SDS011;43161;50.950;18.224;2023-08-12T10:35:29;8.00;;;2.20;;
57325;SDS011;43161;50.950;18.224;2023-08-12T10:38:10;7.10;;;2.00;;
57325;SDS011;43161;50.950;18.224;2023-08-12T10:40:39;5.20;;;1.70;;
57325;SDS011;43161;50.950;18.224;2023-08-12T10:43:05;8.00;;;1.80;;
57325;SDS011;43161;50.950;18.224;2023-08-12T10:48:18;7.30;;;2.00;;
57325;SDS011;43161;50.950;18.224;2023-08-12T10:50:58;6.90;;;1.90;;
57325;SDS011;43161;50.950;18.224;2023-08-12T10:53:25;7.80;;;2.00;;
57325;SDS011;43161;50.950;18.224;2023-08-12T10:56:00;8.40;;;2.20;;
57325;SDS011;43161;50.950;18.224;2023-08-12T10:58:35;6.20;;;2.00;;
57325;SDS011;43161;50.950;18.224;2023-08-12T11:01:03;6.50;;;1.70;;
57325;SDS011;43161;50.950;18.224;2023-08-12T11:03:36;6.60;;;2.00;;
57325;SDS011;43161;50.950;18.224;2023-08-12T11:06:02;7.90;;;1.90;;
57325;SDS011;43161;50.950;18.224;2023-08-12T11:08:28;6.50;;;1.70;;
57325;SDS011;43161;50.950;18.224;2023-08-12T11:10:55;6.60;;;1.70;;
57325;SDS011;43161;50.950;18.224;2023-08-12T11:13:22;6.30;;;1.90;;
57325;SDS011;43161;50.950;18.224;2023-08-12T11:15:48;5.70;;;2.10;;
57325;SDS011;43161;50.950;18.224;2023-08-12T11:18:16;8.10;;;2.10;;
57325;SDS011;43161;50.950;18.224;2023-08-12T11:20:43;6.50;;;1.80;;
57325;SDS011;43161;50.950;18.224;2023-08-12T11:23:09;8.00;;;1.90;;
57325;SDS011;43161;50.950;18.224;2023-08-12T11:25:35;5.90;;;1.90;;
57325;SDS011;43161;50.950;18.224;2023-08-12T11:28:03;6.80;;;1.80;;
57325;SDS011;43161;50.950;18.224;2023-08-12T11:30:30;8.00;;;1.80;;
57325;SDS011;43161;50.950;18.224;2023-08-12T11:32:55;6.50;;;1.60;;
57325;SDS011;43161;50.950;18.224;2023-08-12T11:35:22;6.80;;;1.90;;
57325;SDS011;43161;50.950;18.224;2023-08-12T11:37:49;6.30;;;1.90;;
57325;SDS011;43161;50.950;18.224;2023-08-12T11:40:18;9.00;;;2.30;;
57325;SDS011;43161;50.950;18.224;2023-08-12T11:42:48;6.90;;;1.90;;
57325;SDS011;43161;50.950;18.224;2023-08-12T11:45:21;5.70;;;1.60;;
57325;SDS011;43161;50.950;18.224;2023-08-12T11:47:48;6.90;;;1.80;;
57325;SDS011;43161;50.950;18.224;2023-08-12T11:50:24;7.40;;;2.00;;
57325;SDS011;43161;50.950;18.224;2023-08-12T11:52:52;12.10;;;2.10;;
57325;SDS011;43161;50.950;18.224;2023-08-12T11:55:18;8.10;;;1.90;;
57325;SDS011;43161;50.950;18.224;2023-08-12T11:57:44;6.50;;;1.80;;
57325;SDS011;43161;50.950;18.224;2023-08-12T12:00:11;4.00;;;1.20;;
57325;SDS011;43161;50.950;18.224;2023-08-12T12:02:44;5.40;;;1.40;;
57325;SDS011;43161;50.950;18.224;2023-08-12T12:05:12;5.50;;;1.20;;
57325;SDS011;43161;50.950;18.224;2023-08-12T12:07:38;7.40;;;1.40;;
57325;SDS011;43161;50.950;18.224;2023-08-12T12:10:04;7.90;;;1.70;;
57325;SDS011;43161;50.950;18.224;2023-08-12T12:12:34;5.00;;;1.60;;
57325;SDS011;43161;50.950;18.224;2023-08-12T12:15:01;7.10;;;1.40;;
57325;SDS011;43161;50.950;18.224;2023-08-12T12:17:27;4.90;;;1.70;;
57325;SDS011;43161;50.950;18.224;2023-08-12T12:19:56;6.50;;;1.60;;
57325;SDS011;43161;50.950;18.224;2023-08-12T12:22:29;4.80;;;1.60;;
57325;SDS011;43161;50.950;18.224;2023-08-12T12:24:58;6.10;;;1.40;;
57325;SDS011;43161;50.950;18.224;2023-08-12T12:27:25;7.40;;;1.60;;
57325;SDS011;43161;50.950;18.224;2023-08-12T12:29:52;4.20;;;1.60;;
57325;SDS011;43161;50.950;18.224;2023-08-12T12:32:18;5.80;;;1.50;;
57325;SDS011;43161;50.950;18.224;2023-08-12T12:34:45;5.10;;;1.70;;
57325;SDS011;43161;50.950;18.224;2023-08-12T12:37:12;7.60;;;1.50;;
57325;SDS011;43161;50.950;18.224;2023-08-12T12:39:39;7.30;;;1.50;;
57325;SDS011;43161;50.950;18.224;2023-08-12T12:42:05;6.50;;;1.60;;
57325;SDS011;43161;50.950;18.224;2023-08-12T12:44:31;6.70;;;1.60;;
57325;SDS011;43161;50.950;18.224;2023-08-12T12:46:57;5.30;;;1.50;;
57325;SDS011;43161;50.950;18.224;2023-08-12T12:49:23;6.50;;;1.40;;
57325;SDS011;43161;50.950;18.224;2023-08-12T12:51:48;6.70;;;1.90;;
57325;SDS011;43161;50.950;18.224;2023-08-12T12:54:15;5.20;;;1.40;;
57325;SDS011;43161;50.950;18.224;2023-08-12T12:56:41;5.90;;;1.90;;
57325;SDS011;43161;50.950;18.224;2023-08-12T12:59:07;6.60;;;1.60;;
57325;SDS011;43161;50.950;18.224;2023-08-12T13:01:33;6.50;;;1.90;;
57325;SDS011;43161;50.950;18.224;2023-08-12T13:03:59;6.70;;;2.00;;
57325;SDS011;43161;50.950;18.224;2023-08-12T13:06:24;6.70;;;1.90;;
57325;SDS011;43161;50.950;18.224;2023-08-12T13:08:50;6.10;;;2.20;;
57325;SDS011;43161;50.950;18.224;2023-08-12T13:11:16;6.20;;;1.80;;
57325;SDS011;43161;50.950;18.224;2023-08-12T13:13:42;12.70;;;2.20;;
57325;SDS011;43161;50.950;18.224;2023-08-12T13:16:08;7.90;;;2.00;;
57325;SDS011;43161;50.950;18.224;2023-08-12T13:18:34;9.10;;;2.00;;
57325;SDS011;43161;50.950;18.224;2023-08-12T13:20:59;7.90;;;2.10;;
57325;SDS011;43161;50.950;18.224;2023-08-12T13:23:26;6.90;;;2.00;;
57325;SDS011;43161;50.950;18.224;2023-08-12T13:25:53;8.80;;;1.90;;
57325;SDS011;43161;50.950;18.224;2023-08-12T13:28:19;7.10;;;1.80;;
57325;SDS011;43161;50.950;18.224;2023-08-12T13:30:45;6.90;;;2.20;;
57325;SDS011;43161;50.950;18.224;2023-08-12T13:33:11;6.50;;;1.80;;
57325;SDS011;43161;50.950;18.224;2023-08-12T13:35:37;6.20;;;1.50;;
57325;SDS011;43161;50.950;18.224;2023-08-12T13:38:03;5.20;;;1.50;;
57325;SDS011;43161;50.950;18.224;2023-08-12T13:40:29;9.20;;;1.80;;
57325;SDS011;43161;50.950;18.224;2023-08-12T13:42:56;6.20;;;1.50;;
57325;SDS011;43161;50.950;18.224;2023-08-12T13:45:22;3.70;;;1.50;;
57325;SDS011;43161;50.950;18.224;2023-08-12T13:47:49;8.50;;;1.90;;
57325;SDS011;43161;50.950;18.224;2023-08-12T13:50:16;6.30;;;1.80;;
57325;SDS011;43161;50.950;18.224;2023-08-12T13:52:42;7.00;;;1.90;;
57325;SDS011;43161;50.950;18.224;2023-08-12T13:55:08;8.40;;;1.60;;
57325;SDS011;43161;50.950;18.224;2023-08-12T13:57:35;6.40;;;1.60;;
57325;SDS011;43161;50.950;18.224;2023-08-12T14:00:01;8.00;;;1.80;;
57325;SDS011;43161;50.950;18.224;2023-08-12T14:02:27;7.70;;;1.50;;
57325;SDS011;43161;50.950;18.224;2023-08-12T14:04:53;6.70;;;1.70;;
57325;SDS011;43161;50.950;18.224;2023-08-12T14:07:19;7.70;;;2.30;;
57325;SDS011;43161;50.950;18.224;2023-08-12T14:09:48;6.80;;;1.30;;
57325;SDS011;43161;50.950;18.224;2023-08-12T14:12:14;4.80;;;1.40;;
57325;SDS011;43161;50.950;18.224;2023-08-12T14:14:40;9.40;;;1.40;;
57325;SDS011;43161;50.950;18.224;2023-08-12T14:17:06;6.70;;;1.30;;
57325;SDS011;43161;50.950;18.224;2023-08-12T14:19:32;4.00;;;1.20;;
57325;SDS011;43161;50.950;18.224;2023-08-12T14:21:58;5.50;;;1.30;;
57325;SDS011;43161;50.950;18.224;2023-08-12T14:24:24;6.00;;;1.40;;
57325;SDS011;43161;50.950;18.224;2023-08-12T14:26:49;4.30;;;1.20;;